Aplicació Alertes

Dades de l'estació automàtica Vallfogona de Balaguer

?
?
Resum diari 23:00 TU
Dades diàries de l'estació meteorològica
Temperatura mitjana 12.5 °C
Temperatura màxima 21.4 °C 13:50 TU
Temperatura mínima 3.5 °C 5:40 TU
Humitat relativa mitjana 69%
Precipitació acumulada 0.0 mm
Ratxa màxima del vent (2 m) 29.2 km/h - 281º 14:46 TU
Irradiació solar global 9.5 MJ/m2

El tram horari està expressat en Temps Universal (TU). Cal sumar una hora en horari d'hivern i dues en horari d'estiu per passar a l'hora oficial.

Vallfogona de Balaguer

Metadades estació meteorol´gica
Municipi Vallfogona de Balaguer
Comarca Noguera
Altitud 238 m
Data alta 17.10.1990
Estat actual Operativa
Dades de període
Període
TU
TM
°C
TX
°C
TN
°C
HRM
%
PPT
mm
VVM (2 m)
km/h
DVM (2 m)
graus
VVX (2 m)
km/h
RS
W/m2
00:00 - 00:30 11.2 11.4 11.0 74 0.0 9.7 291 19.1 0
00:30 - 01:00 11.8 12.2 11.2 71 0.0 9.0 308 20.5 0
01:00 - 01:30 12.1 12.3 10.6 69 0.0 7.2 321 18.4 0
01:30 - 02:00 8.1 10.3 6.6 78 0.0 2.2 358 6.8 0
02:00 - 02:30 6.0 6.6 5.7 86 0.0 1.4 334 5.4 0
02:30 - 03:00 5.9 6.2 5.5 88 0.0 4.0 357 10.4 0
03:00 - 03:30 6.5 6.9 5.8 87 0.0 2.2 18 10.1 0
03:30 - 04:00 5.6 6.0 5.3 88 0.0 1.8 3 6.5 0
04:00 - 04:30 5.3 5.4 5.0 90 0.0 3.6 347 7.6 0
04:30 - 05:00 5.0 5.2 4.7 91 0.0 3.2 345 12.2 0
05:00 - 05:30 4.3 4.8 3.8 91 0.0 1.4 359 6.5 0
05:30 - 06:00 3.9 5.0 3.5 92 0.0 2.5 124 5.0 0
06:00 - 06:30 4.4 5.5 3.8 93 0.0 2.5 354 8.3 0
06:30 - 07:00 6.0 8.2 4.9 93 0.0 4.3 116 9.0 0
07:00 - 07:30 7.3 9.3 4.6 87 0.0 3.2 274 7.6 1
07:30 - 08:00 7.0 9.1 4.6 91 0.0 2.9 252 9.7 11
08:00 - 08:30 9.9 10.5 9.2 87 0.0 7.9 240 15.8 28
08:30 - 09:00 10.6 11.1 10.2 83 0.0 4.0 275 14.8 162
09:00 - 09:30 11.7 13.2 11.1 79 0.0 6.5 271 15.1 250
09:30 - 10:00 13.9 14.6 13.3 73 0.0 10.8 261 23.0 327
10:00 - 10:30 15.2 15.9 14.6 67 0.0 12.6 277 21.2 359
10:30 - 11:00 16.3 16.9 15.9 63 0.0 13.0 278 22.3 385
11:00 - 11:30 16.9 17.5 16.6 60 0.0 15.1 282 24.8 342
11:30 - 12:00 18.1 18.7 17.5 55 0.0 12.6 289 24.1 466
12:00 - 12:30 19.3 19.6 18.8 48 0.0 11.5 292 23.8 492
12:30 - 13:00 19.9 20.4 19.5 44 0.0 14.0 288 25.6 479
13:00 - 13:30 20.7 21.1 20.4 42 0.0 11.5 291 20.5 450
13:30 - 14:00 21.2 21.4 21.1 39 0.0 11.2 285 20.9 404
14:00 - 14:30 21.1 21.4 20.8 40 0.0 12.6 284 22.0 332
14:30 - 15:00 20.9 21.1 20.7 41 0.0 15.8 282 29.2 310
15:00 - 15:30 20.6 20.8 20.5 41 0.0 13.3 295 26.6 240
15:30 - 16:00 20.1 20.5 19.5 42 0.0 14.8 284 27.7 163
16:00 - 16:30 19.0 19.5 18.5 46 0.0 14.4 278 24.5 86
16:30 - 17:00 17.8 18.5 16.7 50 0.0 10.4 260 25.2 21
17:00 - 17:30 16.4 16.7 15.5 55 0.0 10.4 269 21.2 0
17:30 - 18:00 15.4 15.5 15.2 58 0.0 11.9 281 20.2 0
18:00 - 18:30 14.5 15.4 13.6 61 0.0 6.1 196 15.8 0
18:30 - 19:00 14.1 14.6 13.1 61 0.0 4.3 207 10.4 0
19:00 - 19:30 12.7 13.6 12.6 67 0.0 5.4 183 13.3 0
19:30 - 20:00 13.5 14.1 12.4 62 0.0 3.2 183 13.3 0
20:00 - 20:30 13.0 13.1 12.4 64 0.0 7.6 235 20.2 0
20:30 - 21:00 12.5 12.7 12.2 66 0.0 8.6 244 17.6 0
21:00 - 21:30 11.7 12.2 11.5 69 0.0 6.1 290 12.6 0
21:30 - 22:00 11.0 11.7 10.4 72 0.0 4.0 301 10.4 0
22:00 - 22:30 9.5 10.3 8.9 79 0.0 2.2 316 6.5 0
22:30 - 23:00 10.5 11.0 8.9 77 0.0 8.3 263 16.2 0
23:00 - 23:30 10.1 10.6 8.2 77 0.0 6.1 296 12.6 0

Les dades en taronja només han passat un control de qualitat automàtic. Resta pendent la seva validació definitiva.